createdAt,value
2023-05-21T00:02:04.581Z,40.20
2023-05-21T00:07:08.852Z,30.38
2023-05-21T00:12:11.882Z,39.00
2023-05-21T00:17:14.755Z,32.17
2023-05-21T00:22:17.721Z,26.85
2023-05-21T00:27:20.707Z,27.52
2023-05-21T00:32:24.040Z,25.08
2023-05-21T00:37:26.916Z,21.83
2023-05-21T00:42:31.084Z,17.52
2023-05-21T00:47:35.544Z,23.13
2023-05-21T00:52:42.477Z,21.02
2023-05-21T00:57:46.465Z,14.38
2023-05-21T01:02:50.488Z,18.60
2023-05-21T01:07:53.517Z,22.52
2023-05-21T01:12:59.382Z,16.73
2023-05-21T01:18:02.363Z,17.58
2023-05-21T01:23:06.336Z,14.85
2023-05-21T01:28:09.492Z,16.17
2023-05-21T01:33:41.559Z,20.25
2023-05-21T01:38:50.764Z,19.88
2023-05-21T01:43:55.981Z,15.68
2023-05-21T01:48:58.956Z,20.75
2023-05-21T01:54:02.635Z,21.15
2023-05-21T01:59:05.822Z,22.48
2023-05-21T02:04:09.147Z,13.95
2023-05-21T02:09:12.365Z,17.52
2023-05-21T02:14:15.165Z,12.13
2023-05-21T02:19:18.664Z,11.57
2023-05-21T02:24:22.765Z,8.98
2023-05-21T02:29:25.596Z,10.32
2023-05-21T02:34:31.382Z,8.93
2023-05-21T02:39:34.332Z,5.75
2023-05-21T02:44:37.289Z,6.53
2023-05-21T02:49:40.221Z,5.32
2023-05-21T02:54:45.837Z,4.97
2023-05-21T02:59:48.996Z,6.38
2023-05-21T03:04:53.118Z,9.90
2023-05-21T03:09:56.087Z,7.85
2023-05-21T03:15:00.232Z,13.85
2023-05-21T03:20:17.529Z,11.05
2023-05-21T03:25:21.990Z,11.32
2023-05-21T03:30:25.113Z,13.52
2023-05-21T03:35:54.902Z,8.85
2023-05-21T03:46:02.915Z,10.70
2023-05-21T03:51:18.498Z,8.50
2023-05-21T03:56:22.030Z,9.23
2023-05-21T04:01:25.087Z,6.60
2023-05-21T04:06:30.585Z,6.50
2023-05-21T04:11:34.137Z,4.97
2023-05-21T04:16:39.104Z,7.55
2023-05-21T04:21:42.447Z,4.57
2023-05-21T04:26:48.434Z,4.68
2023-05-21T04:31:51.930Z,4.38
2023-05-21T04:36:54.888Z,5.85
2023-05-21T04:41:58.190Z,5.97
2023-05-21T04:47:02.705Z,7.47
2023-05-21T04:52:05.854Z,6.10
2023-05-21T04:57:09.490Z,10.05
2023-05-21T05:02:12.481Z,7.32
2023-05-21T05:07:16.083Z,7.18
2023-05-21T05:12:19.044Z,6.03
2023-05-21T05:17:21.996Z,5.20
2023-05-21T05:22:25.641Z,10.02
2023-05-21T05:27:28.598Z,8.02
2023-05-21T05:32:32.074Z,4.50
2023-05-21T05:37:35.141Z,8.23
2023-05-21T05:42:38.346Z,4.07
2023-05-21T05:47:48.497Z,4.78
2023-05-21T05:52:51.907Z,5.85
2023-05-21T05:57:54.840Z,10.32
2023-05-21T06:02:58.304Z,4.68
2023-05-21T06:08:05.131Z,5.63
2023-05-21T06:13:08.112Z,3.55
2023-05-21T06:18:11.941Z,3.47
2023-05-21T06:23:15.011Z,3.47
2023-05-21T06:28:20.610Z,3.40
2023-05-21T06:33:28.016Z,3.72
2023-05-21T06:38:31.079Z,4.72
2023-05-21T06:43:35.946Z,3.95
2023-05-21T06:48:57.318Z,3.88
2023-05-21T06:54:00.541Z,5.43
2023-05-21T06:59:05.102Z,6.13
2023-05-21T07:04:09.195Z,4.15
2023-05-21T07:09:12.542Z,5.30
2023-05-21T07:14:15.542Z,5.85
2023-05-21T07:19:18.601Z,5.40
2023-05-21T07:24:21.609Z,6.28
2023-05-21T07:29:24.851Z,7.32
2023-05-21T07:34:28.299Z,6.70
2023-05-21T07:39:32.022Z,10.60
2023-05-21T07:44:38.240Z,5.15
2023-05-21T07:49:41.285Z,7.72
2023-05-21T07:54:44.303Z,2.92
2023-05-21T07:59:48.148Z,6.30
2023-05-21T08:04:53.004Z,3.40
2023-05-21T08:09:56.361Z,5.03
2023-05-21T08:14:59.711Z,3.97
2023-05-21T08:20:04.145Z,4.75
2023-05-21T08:25:09.200Z,4.07
2023-05-21T08:30:12.537Z,3.42
2023-05-21T08:35:15.944Z,4.45
2023-05-21T08:40:52.233Z,4.38
2023-05-21T08:45:57.643Z,3.47
2023-05-21T08:51:04.111Z,7.13
2023-05-21T08:56:13.623Z,5.60
2023-05-21T09:01:26.542Z,5.60
2023-05-21T09:06:42.403Z,4.60
2023-05-21T09:11:46.985Z,6.28
2023-05-21T09:16:50.132Z,6.03
2023-05-21T09:21:54.557Z,2.90
2023-05-21T09:27:01.250Z,3.65
2023-05-21T09:32:08.414Z,4.15
2023-05-21T09:37:27.233Z,3.80
2023-05-21T09:42:31.696Z,7.13
2023-05-21T09:47:34.786Z,4.85
2023-05-21T09:52:41.361Z,7.22
2023-05-21T09:57:48.623Z,5.03
2023-05-21T10:02:57.012Z,4.85
2023-05-21T10:08:04.605Z,5.68
2023-05-21T10:13:10.024Z,4.22
2023-05-21T10:18:14.111Z,3.78
2023-05-21T10:23:18.372Z,2.88
2023-05-21T10:28:21.500Z,3.08
2023-05-21T10:33:25.505Z,7.38
2023-05-21T10:38:28.717Z,7.93
2023-05-21T10:43:52.769Z,4.60
2023-05-21T10:49:04.343Z,4.90
2023-05-21T10:54:29.111Z,4.95
2023-05-21T10:59:46.609Z,4.28
2023-05-21T11:04:59.220Z,5.20
2023-05-21T11:10:36.129Z,5.72
2023-05-21T11:15:57.994Z,4.55
2023-05-21T11:21:10.784Z,5.45
2023-05-21T11:26:16.858Z,9.35
2023-05-21T11:31:27.284Z,6.13
2023-05-21T11:36:30.836Z,4.60
2023-05-21T11:41:53.729Z,3.35
2023-05-21T11:46:56.838Z,4.05
2023-05-21T11:52:04.014Z,4.95
2023-05-21T11:57:08.334Z,4.57
2023-05-21T12:02:16.465Z,6.50
2023-05-21T12:07:20.351Z,5.95
2023-05-21T12:12:30.748Z,5.30
2023-05-21T12:17:39.693Z,3.75
2023-05-21T12:22:43.698Z,6.82
2023-05-21T12:27:47.256Z,5.65
2023-05-21T12:32:50.238Z,5.63
2023-05-21T12:37:53.426Z,8.63
2023-05-21T12:42:56.988Z,6.78
2023-05-21T12:48:03.356Z,6.38
2023-05-21T12:53:10.116Z,3.97
2023-05-21T12:58:14.616Z,7.50
2023-05-21T13:03:17.542Z,6.33
2023-05-21T13:08:20.548Z,5.95
2023-05-21T13:13:25.242Z,4.63
2023-05-21T13:18:28.243Z,8.18
2023-05-21T13:23:31.490Z,6.50
2023-05-21T13:28:34.431Z,5.50
2023-05-21T13:33:40.000Z,9.43
2023-05-21T13:38:43.107Z,6.63
2023-05-21T13:43:46.118Z,11.20
2023-05-21T13:48:49.192Z,4.97
2023-05-21T13:53:52.323Z,4.50
2023-05-21T13:58:55.430Z,5.85
2023-05-21T14:03:58.734Z,8.15
2023-05-21T14:09:01.776Z,5.82
2023-05-21T14:14:05.178Z,8.98
2023-05-21T14:19:08.211Z,6.00
2023-05-21T14:24:11.339Z,12.57
2023-05-21T14:29:15.305Z,7.40
2023-05-21T14:34:18.242Z,10.48
2023-05-21T14:39:21.425Z,10.00
2023-05-21T14:44:24.364Z,10.70
2023-05-21T14:49:27.302Z,9.05
2023-05-21T14:54:30.211Z,7.72
2023-05-21T14:59:33.077Z,7.95
2023-05-21T15:04:36.021Z,8.15
2023-05-21T15:09:39.217Z,7.43
2023-05-21T15:14:42.138Z,8.95
2023-05-21T15:19:45.308Z,10.85
2023-05-21T15:24:48.398Z,16.52
2023-05-21T15:29:52.378Z,17.38
2023-05-21T15:34:55.522Z,16.42
2023-05-21T15:39:58.926Z,21.20
2023-05-21T15:45:01.848Z,18.70
2023-05-21T15:50:12.550Z,15.57
2023-05-21T15:55:15.755Z,17.02
2023-05-21T16:00:18.986Z,17.75
2023-05-21T16:05:22.058Z,13.98
2023-05-21T16:10:25.277Z,14.55
2023-05-21T16:15:28.971Z,12.30
2023-05-21T16:20:32.754Z,15.57
2023-05-21T16:25:36.703Z,19.00
2023-05-21T16:30:40.092Z,13.48
2023-05-21T16:35:43.163Z,9.55
2023-05-21T16:40:47.488Z,14.90
2023-05-21T16:45:52.769Z,11.73
2023-05-21T16:50:55.769Z,12.95
2023-05-21T16:55:58.637Z,17.42
2023-05-21T17:01:01.632Z,16.73
2023-05-21T17:06:05.878Z,15.88
2023-05-21T17:11:09.192Z,17.88
2023-05-21T17:16:12.513Z,12.75
2023-05-21T17:21:15.512Z,14.68
2023-05-21T17:26:18.466Z,13.68
2023-05-21T17:31:22.555Z,11.30
2023-05-21T17:36:25.684Z,12.38
2023-05-21T17:41:28.800Z,15.50
2023-05-21T17:46:31.754Z,19.80
2023-05-21T17:51:35.142Z,16.80
2023-05-21T17:56:40.876Z,14.07
2023-05-21T18:01:43.905Z,11.00
2023-05-21T18:06:46.967Z,12.60
2023-05-21T18:11:49.897Z,10.48
2023-05-21T18:16:53.006Z,10.15
2023-05-21T18:21:56.128Z,10.20
2023-05-21T18:26:59.613Z,9.48
2023-05-21T18:32:02.693Z,8.68
2023-05-21T18:37:07.190Z,12.73
2023-05-21T18:42:13.418Z,10.05
2023-05-21T18:47:17.301Z,6.40
2023-05-21T18:52:20.241Z,8.27
2023-05-21T18:57:23.203Z,6.13
2023-05-21T19:02:27.472Z,8.15
2023-05-21T19:07:30.430Z,6.32
2023-05-21T19:12:34.494Z,6.93
2023-05-21T19:17:39.324Z,8.10
2023-05-21T19:22:42.408Z,8.07
2023-05-21T19:27:45.485Z,6.53
2023-05-21T19:32:49.116Z,7.22
2023-05-21T19:37:52.176Z,5.60
2023-05-21T19:42:55.093Z,5.65
2023-05-21T19:47:59.603Z,6.80
2023-05-21T19:53:02.834Z,5.73
2023-05-21T19:58:05.917Z,10.10
2023-05-21T20:03:10.158Z,6.63
2023-05-21T20:08:13.711Z,8.87
2023-05-21T20:13:16.915Z,5.80
2023-05-21T20:18:22.566Z,8.70
2023-05-21T20:23:25.494Z,7.82
2023-05-21T20:28:28.421Z,7.28
2023-05-21T20:33:33.182Z,8.65
2023-05-21T20:38:38.577Z,9.05
2023-05-21T20:43:41.586Z,7.40
2023-05-21T20:48:44.528Z,8.90
2023-05-21T20:53:47.491Z,6.63
2023-05-21T20:58:51.169Z,9.02
2023-05-21T21:03:54.342Z,8.20
2023-05-21T21:08:57.495Z,10.00
2023-05-21T21:14:00.388Z,6.47
2023-05-21T21:19:03.379Z,8.68
2023-05-21T21:24:06.943Z,6.68
2023-05-21T21:29:09.749Z,6.32
2023-05-21T21:34:12.672Z,6.07
2023-05-21T21:39:17.326Z,6.63
2023-05-21T21:44:20.332Z,6.80
2023-05-21T21:49:25.405Z,6.65
2023-05-21T21:54:28.447Z,7.78
2023-05-21T21:59:31.416Z,8.07
2023-05-21T22:04:34.660Z,8.82
2023-05-21T22:09:37.803Z,5.65
2023-05-21T22:14:40.672Z,8.10
2023-05-21T22:19:44.180Z,7.13
2023-05-21T22:24:47.079Z,9.05
2023-05-21T22:29:50.074Z,6.13
2023-05-21T22:34:53.348Z,11.15
2023-05-21T22:39:56.657Z,8.00
2023-05-21T22:44:59.458Z,7.65
2023-05-21T22:50:04.738Z,8.48
2023-05-21T22:55:10.003Z,7.32
2023-05-21T23:00:13.258Z,11.30
2023-05-21T23:05:16.574Z,11.00
2023-05-21T23:10:19.696Z,6.95
2023-05-21T23:15:24.809Z,7.07
2023-05-21T23:20:28.269Z,14.45
2023-05-21T23:25:31.308Z,7.72
2023-05-21T23:30:34.185Z,8.82
2023-05-21T23:35:37.200Z,11.40
2023-05-21T23:40:40.544Z,13.27
2023-05-21T23:45:43.708Z,10.88
2023-05-21T23:50:46.760Z,11.05
2023-05-21T23:55:49.645Z,9.10
